Furquim, Brazil
Current Conditions -  °F | °C
As of 9:00 PM on Friday 24 Oct 2014 (Local Time) from SBCF Reporting Station
Clear Clear  
Wind Chill: 77°   Ceiling: Unl
Heat Index: 79°   Visibility: 6mi
Dew Point: 55°   Wind: 10mph
Humidity: 47%   Direction: 110°ESE
Pressure: 30"   Gusts: NA
Location:  20.37°S, 43.22°W
Report Text: SBCF 242300Z 11009KT CAVOK 25/13 Q1016
Loading
Personal Weather Stations






























Interactive Weather Map
Tropical Storm Tracking
New forecast layout! Learn more

10-Day Weather Forecast

Advertisements
Track Severe Weather on mobile